Michael & Kristen — WBA4573 — position and weather

sailwx.info

Track history (hours):
 
Tides and Currents Weather Stations Pressure Air Temp Water Temp Dewpoint Dewpoint Depression Visibility Wind Speed Wind Dir Waves Ship Positions

Michael & Kristen

Owner: RAYMOND, CHARLES E, BEVERLY, MA. More information available from US FCC via Universal Licensing System and Coast Guard Vessel Documentation Center.

Last reported at 2018-Feb-14 08:54 UTC. Time now 2018-Feb-19 14:24 UTC.
Position N 42°35' W 070°40'.

Length 23 m; draft 2 m.

Type: Fishing. MMSI: 367138530.

Date/timePositionNaut miles runAvg speedWind from/ knotsBaromVisibWave heightAir tempDewpointWater temp
2018-Feb-14 08:54N 42°35' W 070°40'3 8.0
2018-Feb-14 08:30N 42°32' W 070°38'4 8.0
2018-Feb-14 08:00N 42°34' W 070°33'4 7.8
2018-Feb-14 07:30N 42°35' W 070°28'4 7.7
2018-Feb-14 07:00N 42°35' W 070°23'4 7.7
2018-Feb-14 06:30N 42°35' W 070°18'4 7.6
2018-Feb-14 06:00N 42°36' W 070°12'  
2018-Feb-06 23:41N 42°37' W 069°60'2 9.0
2018-Feb-06 23:30N 42°37' W 070°02'5 9.1
2018-Feb-06 23:00N 42°37' W 070°08'5 9.2
2018-Feb-06 22:30N 42°36' W 070°14'5 9.2
2018-Feb-06 22:00N 42°36' W 070°20'5 9.0
2018-Feb-06 21:30N 42°35' W 070°26'5 9.0
2018-Feb-06 21:00N 42°35' W 070°33'5 9.0
2018-Feb-06 20:30N 42°35' W 070°39'2 4.6
2018-Feb-06 20:00N 42°37' W 070°39'0 0.0
2018-Feb-06 19:28N 42°37' W 070°39'  
Track history (hours):
 
Tides and Currents Weather Stations Pressure Air Temp Water Temp Dewpoint Dewpoint Depression Visibility Wind Speed Wind Dir Waves Ship Positions

Michael & Kristen

Owner: RAYMOND, CHARLES E, BEVERLY, MA. More information available from US FCC via Universal Licensing System and Coast Guard Vessel Documentation Center.

Last reported at 2018-Feb-14 08:54 UTC. Time now 2018-Feb-19 14:24 UTC.
Position N 42°35' W 070°40'.

Length 23 m; draft 2 m.

Type: Fishing. MMSI: 367138530.

Date/timePositionNaut miles runAvg speedWind from/ knotsBaromVisibWave heightAir tempDewpointWater temp
2018-Feb-14 08:54N 42°35' W 070°40'3 8.0
2018-Feb-14 08:30N 42°32' W 070°38'4 8.0
2018-Feb-14 08:00N 42°34' W 070°33'4 7.8
2018-Feb-14 07:30N 42°35' W 070°28'4 7.7
2018-Feb-14 07:00N 42°35' W 070°23'4 7.7
2018-Feb-14 06:30N 42°35' W 070°18'4 7.6
2018-Feb-14 06:00N 42°36' W 070°12'  
2018-Feb-06 23:41N 42°37' W 069°60'2 9.0
2018-Feb-06 23:30N 42°37' W 070°02'5 9.1
2018-Feb-06 23:00N 42°37' W 070°08'5 9.2
2018-Feb-06 22:30N 42°36' W 070°14'5 9.2
2018-Feb-06 22:00N 42°36' W 070°20'5 9.0
2018-Feb-06 21:30N 42°35' W 070°26'5 9.0
2018-Feb-06 21:00N 42°35' W 070°33'5 9.0
2018-Feb-06 20:30N 42°35' W 070°39'2 4.6
2018-Feb-06 20:00N 42°37' W 070°39'0 0.0
2018-Feb-06 19:28N 42°37' W 070°39'  

Dump ship's entire track history